sensor_id;sensor_type;location;lat;lon;timestamp;temperature;humidity
49222;DHT22;35047;37.588;-122.048;2023-09-08T00:00:39;32.10;79.10
49222;DHT22;35047;37.588;-122.048;2023-09-08T00:03:05;32.10;78.50
49222;DHT22;35047;37.588;-122.048;2023-09-08T00:05:32;31.80;79.30
49222;DHT22;35047;37.588;-122.048;2023-09-08T00:10:25;31.40;79.70
49222;DHT22;35047;37.588;-122.048;2023-09-08T00:15:18;31.40;79.80
49222;DHT22;35047;37.588;-122.048;2023-09-08T00:17:45;31.20;79.70
49222;DHT22;35047;37.588;-122.048;2023-09-08T00:22:41;31.10;78.80
49222;DHT22;35047;37.588;-122.048;2023-09-08T00:32:28;30.50;79.10
49222;DHT22;35047;37.588;-122.048;2023-09-08T00:34:54;30.40;79.00
49222;DHT22;35047;37.588;-122.048;2023-09-08T00:37:21;30.20;79.00
49222;DHT22;35047;37.588;-122.048;2023-09-08T00:39:47;30.20;78.60
49222;DHT22;35047;37.588;-122.048;2023-09-08T00:42:14;30.10;78.50
49222;DHT22;35047;37.588;-122.048;2023-09-08T00:44:40;30.20;78.90
49222;DHT22;35047;37.588;-122.048;2023-09-08T00:52:00;30.20;78.20
49222;DHT22;35047;37.588;-122.048;2023-09-08T00:54:27;30.30;79.10
49222;DHT22;35047;37.588;-122.048;2023-09-08T00:56:56;30.40;79.80
49222;DHT22;35047;37.588;-122.048;2023-09-08T00:59:25;30.50;80.50
49222;DHT22;35047;37.588;-122.048;2023-09-08T01:01:53;30.40;80.70
49222;DHT22;35047;37.588;-122.048;2023-09-08T01:04:20;30.50;80.70
49222;DHT22;35047;37.588;-122.048;2023-09-08T01:06:47;30.50;81.00
49222;DHT22;35047;37.588;-122.048;2023-09-08T01:09:14;30.60;80.60
49222;DHT22;35047;37.588;-122.048;2023-09-08T01:11:41;30.80;80.70
49222;DHT22;35047;37.588;-122.048;2023-09-08T01:14:09;31.10;80.10
49222;DHT22;35047;37.588;-122.048;2023-09-08T01:16:38;31.30;79.70
49222;DHT22;35047;37.588;-122.048;2023-09-08T01:19:11;31.60;79.00
49222;DHT22;35047;37.588;-122.048;2023-09-08T01:22:06;31.50;77.30
49222;DHT22;35047;37.588;-122.048;2023-09-08T01:25:06;31.60;77.50
49222;DHT22;35047;37.588;-122.048;2023-09-08T01:27:35;31.70;77.10
49222;DHT22;35047;37.588;-122.048;2023-09-08T01:30:06;31.70;76.70
49222;DHT22;35047;37.588;-122.048;2023-09-08T01:32:33;31.70;76.80
49222;DHT22;35047;37.588;-122.048;2023-09-08T01:35:00;31.40;76.70
49222;DHT22;35047;37.588;-122.048;2023-09-08T01:37:27;31.40;77.20
49222;DHT22;35047;37.588;-122.048;2023-09-08T01:39:54;31.30;76.90
49222;DHT22;35047;37.588;-122.048;2023-09-08T01:42:20;31.30;78.10
49222;DHT22;35047;37.588;-122.048;2023-09-08T01:44:47;31.10;79.00
49222;DHT22;35047;37.588;-122.048;2023-09-08T01:47:13;30.90;80.00
49222;DHT22;35047;37.588;-122.048;2023-09-08T01:49:40;30.70;80.80
49222;DHT22;35047;37.588;-122.048;2023-09-08T01:52:06;30.50;81.30
49222;DHT22;35047;37.588;-122.048;2023-09-08T01:54:33;30.00;82.10
49222;DHT22;35047;37.588;-122.048;2023-09-08T01:56:59;29.60;62.70
49222;DHT22;35047;37.588;-122.048;2023-09-08T01:59:26;29.60;60.70
49222;DHT22;35047;37.588;-122.048;2023-09-08T02:01:52;29.20;58.00
49222;DHT22;35047;37.588;-122.048;2023-09-08T02:04:19;28.90;51.50
49222;DHT22;35047;37.588;-122.048;2023-09-08T02:06:45;28.60;52.70
49222;DHT22;35047;37.588;-122.048;2023-09-08T02:09:14;28.40;52.10
49222;DHT22;35047;37.588;-122.048;2023-09-08T02:11:41;28.20;51.10
49222;DHT22;35047;37.588;-122.048;2023-09-08T02:14:08;28.10;51.00
49222;DHT22;35047;37.588;-122.048;2023-09-08T02:16:35;28.00;51.20
49222;DHT22;35047;37.588;-122.048;2023-09-08T02:19:01;27.90;50.90
49222;DHT22;35047;37.588;-122.048;2023-09-08T02:21:27;27.70;54.80
49222;DHT22;35047;37.588;-122.048;2023-09-08T02:23:54;27.40;52.90
49222;DHT22;35047;37.588;-122.048;2023-09-08T02:26:20;27.20;54.10
49222;DHT22;35047;37.588;-122.048;2023-09-08T02:28:47;26.90;76.00
49222;DHT22;35047;37.588;-122.048;2023-09-08T02:31:13;26.70;78.00
49222;DHT22;35047;37.588;-122.048;2023-09-08T02:33:40;26.60;79.10
49222;DHT22;35047;37.588;-122.048;2023-09-08T02:36:06;26.40;80.10
49222;DHT22;35047;37.588;-122.048;2023-09-08T02:38:33;26.30;79.90
49222;DHT22;35047;37.588;-122.048;2023-09-08T02:41:00;26.20;80.20
49222;DHT22;35047;37.588;-122.048;2023-09-08T02:43:26;26.10;80.70
49222;DHT22;35047;37.588;-122.048;2023-09-08T02:45:53;26.00;81.00
49222;DHT22;35047;37.588;-122.048;2023-09-08T02:48:19;26.00;81.40
49222;DHT22;35047;37.588;-122.048;2023-09-08T02:50:46;26.00;82.40
49222;DHT22;35047;37.588;-122.048;2023-09-08T02:53:12;25.80;83.50
49222;DHT22;35047;37.588;-122.048;2023-09-08T02:55:39;25.60;86.70
49222;DHT22;35047;37.588;-122.048;2023-09-08T02:58:05;25.20;89.70
49222;DHT22;35047;37.588;-122.048;2023-09-08T03:05:26;25.10;83.20
49222;DHT22;35047;37.588;-122.048;2023-09-08T03:07:53;24.60;59.20
49222;DHT22;35047;37.588;-122.048;2023-09-08T03:10:19;24.50;59.50
49222;DHT22;35047;37.588;-122.048;2023-09-08T03:12:45;24.60;59.40
49222;DHT22;35047;37.588;-122.048;2023-09-08T03:15:12;24.60;59.70
49222;DHT22;35047;37.588;-122.048;2023-09-08T03:17:38;24.60;59.90
49222;DHT22;35047;37.588;-122.048;2023-09-08T03:20:05;24.60;60.20
49222;DHT22;35047;37.588;-122.048;2023-09-08T03:22:33;24.60;60.30
49222;DHT22;35047;37.588;-122.048;2023-09-08T03:25:00;24.80;60.20
49222;DHT22;35047;37.588;-122.048;2023-09-08T03:27:26;24.80;60.40
49222;DHT22;35047;37.588;-122.048;2023-09-08T03:29:52;24.90;60.20
49222;DHT22;35047;37.588;-122.048;2023-09-08T03:32:20;24.90;60.40
49222;DHT22;35047;37.588;-122.048;2023-09-08T03:34:46;25.00;60.30
49222;DHT22;35047;37.588;-122.048;2023-09-08T03:37:13;25.30;59.90
49222;DHT22;35047;37.588;-122.048;2023-09-08T03:39:41;25.10;59.90
49222;DHT22;35047;37.588;-122.048;2023-09-08T03:42:07;25.30;59.80
49222;DHT22;35047;37.588;-122.048;2023-09-08T03:44:34;25.60;62.20
49222;DHT22;35047;37.588;-122.048;2023-09-08T03:54:26;25.80;67.50
49222;DHT22;35047;37.588;-122.048;2023-09-08T03:56:52;25.90;63.60
49222;DHT22;35047;37.588;-122.048;2023-09-08T03:59:19;25.90;62.30
49222;DHT22;35047;37.588;-122.048;2023-09-08T04:01:45;25.90;62.20
49222;DHT22;35047;37.588;-122.048;2023-09-08T04:04:12;25.90;60.60
49222;DHT22;35047;37.588;-122.048;2023-09-08T04:06:39;25.70;60.40
49222;DHT22;35047;37.588;-122.048;2023-09-08T04:09:05;25.90;60.10
49222;DHT22;35047;37.588;-122.048;2023-09-08T04:11:32;26.00;59.60
49222;DHT22;35047;37.588;-122.048;2023-09-08T04:13:58;26.00;59.40
49222;DHT22;35047;37.588;-122.048;2023-09-08T04:16:26;26.10;59.20
49222;DHT22;35047;37.588;-122.048;2023-09-08T04:18:52;26.20;59.10
49222;DHT22;35047;37.588;-122.048;2023-09-08T04:21:18;26.20;58.80
49222;DHT22;35047;37.588;-122.048;2023-09-08T04:23:45;26.20;58.60
49222;DHT22;35047;37.588;-122.048;2023-09-08T04:26:12;26.10;58.60
49222;DHT22;35047;37.588;-122.048;2023-09-08T04:28:39;26.10;58.70
49222;DHT22;35047;37.588;-122.048;2023-09-08T04:31:05;26.00;58.60
49222;DHT22;35047;37.588;-122.048;2023-09-08T04:33:32;26.00;58.70
49222;DHT22;35047;37.588;-122.048;2023-09-08T04:35:59;25.90;58.70
49222;DHT22;35047;37.588;-122.048;2023-09-08T04:38:25;25.90;58.70
49222;DHT22;35047;37.588;-122.048;2023-09-08T04:40:52;25.90;58.80
49222;DHT22;35047;37.588;-122.048;2023-09-08T04:43:18;25.80;59.00
49222;DHT22;35047;37.588;-122.048;2023-09-08T04:45:45;25.80;59.00
49222;DHT22;35047;37.588;-122.048;2023-09-08T04:48:11;25.80;59.20
49222;DHT22;35047;37.588;-122.048;2023-09-08T04:50:38;25.70;59.30
49222;DHT22;35047;37.588;-122.048;2023-09-08T04:53:04;25.60;59.30
49222;DHT22;35047;37.588;-122.048;2023-09-08T04:55:31;25.60;59.40
49222;DHT22;35047;37.588;-122.048;2023-09-08T04:57:58;25.50;59.90
49222;DHT22;35047;37.588;-122.048;2023-09-08T05:00:24;25.40;60.60
49222;DHT22;35047;37.588;-122.048;2023-09-08T05:02:51;25.40;60.00
49222;DHT22;35047;37.588;-122.048;2023-09-08T05:05:17;25.30;60.10
49222;DHT22;35047;37.588;-122.048;2023-09-08T05:07:44;25.30;60.20
49222;DHT22;35047;37.588;-122.048;2023-09-08T05:10:11;25.20;60.20
49222;DHT22;35047;37.588;-122.048;2023-09-08T05:12:38;25.20;60.40
49222;DHT22;35047;37.588;-122.048;2023-09-08T05:15:05;25.10;60.40
49222;DHT22;35047;37.588;-122.048;2023-09-08T05:17:36;25.10;60.50
49222;DHT22;35047;37.588;-122.048;2023-09-08T05:20:03;25.00;60.70
49222;DHT22;35047;37.588;-122.048;2023-09-08T05:22:29;24.90;60.80
49222;DHT22;35047;37.588;-122.048;2023-09-08T05:24:56;24.90;61.00
49222;DHT22;35047;37.588;-122.048;2023-09-08T05:27:22;24.90;61.10
49222;DHT22;35047;37.588;-122.048;2023-09-08T05:29:49;24.80;61.20
49222;DHT22;35047;37.588;-122.048;2023-09-08T05:32:15;24.80;61.20
49222;DHT22;35047;37.588;-122.048;2023-09-08T05:34:42;24.80;61.40
49222;DHT22;35047;37.588;-122.048;2023-09-08T05:37:08;24.70;61.20
49222;DHT22;35047;37.588;-122.048;2023-09-08T05:39:35;24.70;61.30
49222;DHT22;35047;37.588;-122.048;2023-09-08T05:42:02;24.60;61.20
49222;DHT22;35047;37.588;-122.048;2023-09-08T05:44:28;24.60;61.30
49222;DHT22;35047;37.588;-122.048;2023-09-08T05:46:55;24.50;61.40
49222;DHT22;35047;37.588;-122.048;2023-09-08T05:49:21;24.50;61.60
49222;DHT22;35047;37.588;-122.048;2023-09-08T05:51:48;24.50;61.80
49222;DHT22;35047;37.588;-122.048;2023-09-08T05:54:15;24.50;62.10
49222;DHT22;35047;37.588;-122.048;2023-09-08T05:56:41;24.40;62.20
49222;DHT22;35047;37.588;-122.048;2023-09-08T05:59:08;24.40;61.80
49222;DHT22;35047;37.588;-122.048;2023-09-08T06:01:36;24.30;61.90
49222;DHT22;35047;37.588;-122.048;2023-09-08T06:04:03;24.30;62.30
49222;DHT22;35047;37.588;-122.048;2023-09-08T06:06:29;24.30;62.20
49222;DHT22;35047;37.588;-122.048;2023-09-08T06:08:56;24.20;62.20
49222;DHT22;35047;37.588;-122.048;2023-09-08T06:11:22;24.20;62.20
49222;DHT22;35047;37.588;-122.048;2023-09-08T06:13:49;24.10;62.10
49222;DHT22;35047;37.588;-122.048;2023-09-08T06:16:15;24.10;62.30
49222;DHT22;35047;37.588;-122.048;2023-09-08T06:18:42;24.10;62.60
49222;DHT22;35047;37.588;-122.048;2023-09-08T06:21:10;24.00;62.70
49222;DHT22;35047;37.588;-122.048;2023-09-08T06:23:36;24.00;63.00
49222;DHT22;35047;37.588;-122.048;2023-09-08T06:26:03;24.00;63.20
49222;DHT22;35047;37.588;-122.048;2023-09-08T06:28:29;24.00;63.30
49222;DHT22;35047;37.588;-122.048;2023-09-08T06:30:56;23.90;63.40
49222;DHT22;35047;37.588;-122.048;2023-09-08T06:33:22;24.00;63.60
49222;DHT22;35047;37.588;-122.048;2023-09-08T06:35:49;23.90;63.40
49222;DHT22;35047;37.588;-122.048;2023-09-08T06:38:15;23.90;63.40
49222;DHT22;35047;37.588;-122.048;2023-09-08T06:40:42;23.90;63.50
49222;DHT22;35047;37.588;-122.048;2023-09-08T06:43:08;23.80;63.40
49222;DHT22;35047;37.588;-122.048;2023-09-08T06:45:38;23.70;63.00
49222;DHT22;35047;37.588;-122.048;2023-09-08T06:48:06;23.70;63.00
49222;DHT22;35047;37.588;-122.048;2023-09-08T06:50:32;23.70;63.40
49222;DHT22;35047;37.588;-122.048;2023-09-08T06:52:59;23.70;63.40
49222;DHT22;35047;37.588;-122.048;2023-09-08T06:55:26;23.60;63.90
49222;DHT22;35047;37.588;-122.048;2023-09-08T06:57:52;23.60;63.40
49222;DHT22;35047;37.588;-122.048;2023-09-08T07:00:19;23.60;63.10
49222;DHT22;35047;37.588;-122.048;2023-09-08T07:02:46;23.50;63.60
49222;DHT22;35047;37.588;-122.048;2023-09-08T07:05:14;23.50;63.70
49222;DHT22;35047;37.588;-122.048;2023-09-08T07:07:40;23.40;63.70
49222;DHT22;35047;37.588;-122.048;2023-09-08T07:10:07;23.40;64.60
49222;DHT22;35047;37.588;-122.048;2023-09-08T07:12:34;23.40;63.70
49222;DHT22;35047;37.588;-122.048;2023-09-08T07:15:01;23.40;63.70
49222;DHT22;35047;37.588;-122.048;2023-09-08T07:17:28;23.40;63.80
49222;DHT22;35047;37.588;-122.048;2023-09-08T07:19:54;23.40;63.90
49222;DHT22;35047;37.588;-122.048;2023-09-08T07:22:21;23.30;63.70
49222;DHT22;35047;37.588;-122.048;2023-09-08T07:24:48;23.30;63.90
49222;DHT22;35047;37.588;-122.048;2023-09-08T07:27:14;23.30;64.10
49222;DHT22;35047;37.588;-122.048;2023-09-08T07:29:41;23.30;64.20
49222;DHT22;35047;37.588;-122.048;2023-09-08T07:32:08;23.20;63.80
49222;DHT22;35047;37.588;-122.048;2023-09-08T07:34:34;23.20;64.10
49222;DHT22;35047;37.588;-122.048;2023-09-08T07:37:01;23.20;64.20
49222;DHT22;35047;37.588;-122.048;2023-09-08T07:39:28;23.20;64.10
49222;DHT22;35047;37.588;-122.048;2023-09-08T07:41:54;23.10;64.20
49222;DHT22;35047;37.588;-122.048;2023-09-08T07:44:22;23.10;64.40
49222;DHT22;35047;37.588;-122.048;2023-09-08T07:46:48;23.10;64.20
49222;DHT22;35047;37.588;-122.048;2023-09-08T07:49:18;23.10;64.30
49222;DHT22;35047;37.588;-122.048;2023-09-08T07:51:47;23.00;64.40
49222;DHT22;35047;37.588;-122.048;2023-09-08T07:54:14;23.00;64.30
49222;DHT22;35047;37.588;-122.048;2023-09-08T07:56:40;23.00;64.50
49222;DHT22;35047;37.588;-122.048;2023-09-08T07:59:07;22.90;64.90
49222;DHT22;35047;37.588;-122.048;2023-09-08T08:01:34;22.90;65.10
49222;DHT22;35047;37.588;-122.048;2023-09-08T08:04:00;22.80;65.30
49222;DHT22;35047;37.588;-122.048;2023-09-08T08:06:29;22.80;65.50
49222;DHT22;35047;37.588;-122.048;2023-09-08T08:08:56;22.70;65.30
49222;DHT22;35047;37.588;-122.048;2023-09-08T08:11:23;22.70;65.60
49222;DHT22;35047;37.588;-122.048;2023-09-08T08:13:51;22.60;65.40
49222;DHT22;35047;37.588;-122.048;2023-09-08T08:16:18;22.60;65.30
49222;DHT22;35047;37.588;-122.048;2023-09-08T08:18:46;22.60;65.80
49222;DHT22;35047;37.588;-122.048;2023-09-08T08:21:12;22.60;65.10
49222;DHT22;35047;37.588;-122.048;2023-09-08T08:23:39;22.50;65.00
49222;DHT22;35047;37.588;-122.048;2023-09-08T08:26:05;22.50;65.30
49222;DHT22;35047;37.588;-122.048;2023-09-08T08:28:32;22.50;65.30
49222;DHT22;35047;37.588;-122.048;2023-09-08T08:30:59;22.50;65.20
49222;DHT22;35047;37.588;-122.048;2023-09-08T08:33:25;22.50;65.10
49222;DHT22;35047;37.588;-122.048;2023-09-08T08:35:53;22.40;64.70
49222;DHT22;35047;37.588;-122.048;2023-09-08T08:38:20;22.50;65.20
49222;DHT22;35047;37.588;-122.048;2023-09-08T08:40:46;22.40;65.50
49222;DHT22;35047;37.588;-122.048;2023-09-08T08:43:13;22.40;65.40
49222;DHT22;35047;37.588;-122.048;2023-09-08T08:45:41;22.40;65.30
49222;DHT22;35047;37.588;-122.048;2023-09-08T08:48:09;22.40;65.30
49222;DHT22;35047;37.588;-122.048;2023-09-08T08:50:38;22.40;65.30
49222;DHT22;35047;37.588;-122.048;2023-09-08T08:53:05;22.40;65.10
49222;DHT22;35047;37.588;-122.048;2023-09-08T08:55:34;22.30;64.60
49222;DHT22;35047;37.588;-122.048;2023-09-08T08:58:03;22.30;64.70
49222;DHT22;35047;37.588;-122.048;2023-09-08T09:00:30;22.30;64.60
49222;DHT22;35047;37.588;-122.048;2023-09-08T09:03:00;22.30;64.90
49222;DHT22;35047;37.588;-122.048;2023-09-08T09:05:26;22.30;64.70
49222;DHT22;35047;37.588;-122.048;2023-09-08T09:07:54;22.20;64.80
49222;DHT22;35047;37.588;-122.048;2023-09-08T09:10:24;22.30;65.10
49222;DHT22;35047;37.588;-122.048;2023-09-08T09:12:50;22.20;64.80
49222;DHT22;35047;37.588;-122.048;2023-09-08T09:15:28;22.20;65.10
49222;DHT22;35047;37.588;-122.048;2023-09-08T09:18:06;22.20;65.30
49222;DHT22;35047;37.588;-122.048;2023-09-08T09:20:33;22.20;65.20
49222;DHT22;35047;37.588;-122.048;2023-09-08T09:23:00;22.20;65.20
49222;DHT22;35047;37.588;-122.048;2023-09-08T09:25:28;22.20;65.30
49222;DHT22;35047;37.588;-122.048;2023-09-08T09:28:00;22.10;65.20
49222;DHT22;35047;37.588;-122.048;2023-09-08T09:30:27;22.10;65.00
49222;DHT22;35047;37.588;-122.048;2023-09-08T09:33:03;22.10;65.60
49222;DHT22;35047;37.588;-122.048;2023-09-08T09:35:50;22.10;65.10
49222;DHT22;35047;37.588;-122.048;2023-09-08T09:38:19;22.10;65.20
49222;DHT22;35047;37.588;-122.048;2023-09-08T09:40:47;22.10;65.40
49222;DHT22;35047;37.588;-122.048;2023-09-08T09:43:15;22.10;65.50
49222;DHT22;35047;37.588;-122.048;2023-09-08T09:45:42;22.10;65.80
49222;DHT22;35047;37.588;-122.048;2023-09-08T09:48:11;22.10;65.90
49222;DHT22;35047;37.588;-122.048;2023-09-08T09:50:42;22.00;65.60
49222;DHT22;35047;37.588;-122.048;2023-09-08T09:53:15;22.00;65.40
49222;DHT22;35047;37.588;-122.048;2023-09-08T09:55:44;22.00;65.50
49222;DHT22;35047;37.588;-122.048;2023-09-08T09:58:11;22.00;65.70
49222;DHT22;35047;37.588;-122.048;2023-09-08T10:00:38;22.00;66.00
49222;DHT22;35047;37.588;-122.048;2023-09-08T10:03:06;22.00;66.00
49222;DHT22;35047;37.588;-122.048;2023-09-08T10:05:34;22.00;65.50
49222;DHT22;35047;37.588;-122.048;2023-09-08T10:08:01;22.00;65.30
49222;DHT22;35047;37.588;-122.048;2023-09-08T10:10:30;21.90;65.50
49222;DHT22;35047;37.588;-122.048;2023-09-08T10:13:02;21.90;65.90
49222;DHT22;35047;37.588;-122.048;2023-09-08T10:15:31;21.90;65.60
49222;DHT22;35047;37.588;-122.048;2023-09-08T10:17:58;21.80;65.70
49222;DHT22;35047;37.588;-122.048;2023-09-08T10:20:26;21.90;65.80
49222;DHT22;35047;37.588;-122.048;2023-09-08T10:23:16;21.80;65.90
49222;DHT22;35047;37.588;-122.048;2023-09-08T10:25:47;21.90;65.80
49222;DHT22;35047;37.588;-122.048;2023-09-08T10:28:22;21.80;65.60
49222;DHT22;35047;37.588;-122.048;2023-09-08T10:30:49;21.80;65.70
49222;DHT22;35047;37.588;-122.048;2023-09-08T10:33:16;21.80;65.80
49222;DHT22;35047;37.588;-122.048;2023-09-08T10:35:44;21.80;66.00
49222;DHT22;35047;37.588;-122.048;2023-09-08T10:38:30;21.80;66.20
49222;DHT22;35047;37.588;-122.048;2023-09-08T10:43:46;21.70;65.90
49222;DHT22;35047;37.588;-122.048;2023-09-08T10:46:23;21.70;66.70
49222;DHT22;35047;37.588;-122.048;2023-09-08T10:48:50;21.70;66.10
49222;DHT22;35047;37.588;-122.048;2023-09-08T10:51:19;21.70;65.80
49222;DHT22;35047;37.588;-122.048;2023-09-08T10:53:47;21.70;65.60
49222;DHT22;35047;37.588;-122.048;2023-09-08T10:56:16;21.70;65.80
49222;DHT22;35047;37.588;-122.048;2023-09-08T10:58:43;21.70;65.60
49222;DHT22;35047;37.588;-122.048;2023-09-08T11:01:15;21.60;65.50
49222;DHT22;35047;37.588;-122.048;2023-09-08T11:03:45;21.60;65.60
49222;DHT22;35047;37.588;-122.048;2023-09-08T11:06:14;21.60;65.90
49222;DHT22;35047;37.588;-122.048;2023-09-08T11:08:42;21.60;66.10
49222;DHT22;35047;37.588;-122.048;2023-09-08T11:11:14;21.60;66.00
49222;DHT22;35047;37.588;-122.048;2023-09-08T11:13:41;21.60;66.00
49222;DHT22;35047;37.588;-122.048;2023-09-08T11:16:08;21.60;66.40
49222;DHT22;35047;37.588;-122.048;2023-09-08T11:18:35;21.60;66.20
49222;DHT22;35047;37.588;-122.048;2023-09-08T11:21:07;21.60;66.20
49222;DHT22;35047;37.588;-122.048;2023-09-08T11:23:34;21.60;66.40
49222;DHT22;35047;37.588;-122.048;2023-09-08T11:26:01;21.50;66.00
49222;DHT22;35047;37.588;-122.048;2023-09-08T11:28:28;21.50;66.20
49222;DHT22;35047;37.588;-122.048;2023-09-08T11:30:55;21.50;66.20
49222;DHT22;35047;37.588;-122.048;2023-09-08T11:33:22;21.50;66.90
49222;DHT22;35047;37.588;-122.048;2023-09-08T11:35:55;21.50;66.20
49222;DHT22;35047;37.588;-122.048;2023-09-08T11:38:28;21.50;65.90
49222;DHT22;35047;37.588;-122.048;2023-09-08T11:40:57;21.50;66.10
49222;DHT22;35047;37.588;-122.048;2023-09-08T11:43:25;21.40;66.00
49222;DHT22;35047;37.588;-122.048;2023-09-08T11:45:53;21.40;65.70
49222;DHT22;35047;37.588;-122.048;2023-09-08T11:48:20;21.40;66.00
49222;DHT22;35047;37.588;-122.048;2023-09-08T11:50:46;21.40;66.40
49222;DHT22;35047;37.588;-122.048;2023-09-08T11:53:13;21.40;66.40
49222;DHT22;35047;37.588;-122.048;2023-09-08T11:55:44;21.30;66.20
49222;DHT22;35047;37.588;-122.048;2023-09-08T11:58:11;21.30;65.90
49222;DHT22;35047;37.588;-122.048;2023-09-08T12:00:37;21.30;66.20
49222;DHT22;35047;37.588;-122.048;2023-09-08T12:03:11;21.30;66.30
49222;DHT22;35047;37.588;-122.048;2023-09-08T12:05:38;21.30;66.80
49222;DHT22;35047;37.588;-122.048;2023-09-08T12:08:05;21.30;66.30
49222;DHT22;35047;37.588;-122.048;2023-09-08T12:10:38;21.30;66.30
49222;DHT22;35047;37.588;-122.048;2023-09-08T12:13:05;21.30;66.50
49222;DHT22;35047;37.588;-122.048;2023-09-08T12:15:42;21.30;66.70
49222;DHT22;35047;37.588;-122.048;2023-09-08T12:18:11;21.20;66.10
49222;DHT22;35047;37.588;-122.048;2023-09-08T12:20:39;21.20;66.00
49222;DHT22;35047;37.588;-122.048;2023-09-08T12:25:47;21.20;65.90
49222;DHT22;35047;37.588;-122.048;2023-09-08T12:28:16;21.20;66.20
49222;DHT22;35047;37.588;-122.048;2023-09-08T12:30:43;21.20;66.40
49222;DHT22;35047;37.588;-122.048;2023-09-08T12:33:10;21.10;66.20
49222;DHT22;35047;37.588;-122.048;2023-09-08T12:35:37;21.20;66.20
49222;DHT22;35047;37.588;-122.048;2023-09-08T12:38:04;21.10;66.00
49222;DHT22;35047;37.588;-122.048;2023-09-08T12:40:34;21.10;65.80
49222;DHT22;35047;37.588;-122.048;2023-09-08T12:43:01;21.10;65.90
49222;DHT22;35047;37.588;-122.048;2023-09-08T12:45:28;21.10;66.30
49222;DHT22;35047;37.588;-122.048;2023-09-08T12:47:57;21.10;66.40
49222;DHT22;35047;37.588;-122.048;2023-09-08T12:50:27;21.10;66.10
49222;DHT22;35047;37.588;-122.048;2023-09-08T12:52:54;21.10;65.80
49222;DHT22;35047;37.588;-122.048;2023-09-08T12:55:21;21.00;65.30
49222;DHT22;35047;37.588;-122.048;2023-09-08T12:57:48;21.10;65.40
49222;DHT22;35047;37.588;-122.048;2023-09-08T13:00:16;21.00;65.80
49222;DHT22;35047;37.588;-122.048;2023-09-08T13:02:44;21.00;65.60
49222;DHT22;35047;37.588;-122.048;2023-09-08T13:05:10;21.00;65.60
49222;DHT22;35047;37.588;-122.048;2023-09-08T13:07:37;21.00;65.80
49222;DHT22;35047;37.588;-122.048;2023-09-08T13:10:04;21.00;66.10
49222;DHT22;35047;37.588;-122.048;2023-09-08T13:12:30;20.90;65.70
49222;DHT22;35047;37.588;-122.048;2023-09-08T13:14:57;20.90;66.00
49222;DHT22;35047;37.588;-122.048;2023-09-08T13:17:24;20.80;65.90
49222;DHT22;35047;37.588;-122.048;2023-09-08T13:19:50;20.80;66.10
49222;DHT22;35047;37.588;-122.048;2023-09-08T13:22:17;20.70;66.50
49222;DHT22;35047;37.588;-122.048;2023-09-08T13:24:43;20.60;66.90
49222;DHT22;35047;37.588;-122.048;2023-09-08T13:27:10;20.50;67.00
49222;DHT22;35047;37.588;-122.048;2023-09-08T13:29:37;20.40;67.40
49222;DHT22;35047;37.588;-122.048;2023-09-08T13:32:04;20.30;67.90
49222;DHT22;35047;37.588;-122.048;2023-09-08T13:34:31;20.20;68.40
49222;DHT22;35047;37.588;-122.048;2023-09-08T13:36:58;20.10;68.60
49222;DHT22;35047;37.588;-122.048;2023-09-08T13:39:25;20.00;68.70
49222;DHT22;35047;37.588;-122.048;2023-09-08T13:44:19;19.90;68.70
49222;DHT22;35047;37.588;-122.048;2023-09-08T13:46:47;19.80;68.90
49222;DHT22;35047;37.588;-122.048;2023-09-08T13:49:14;19.80;69.40
49222;DHT22;35047;37.588;-122.048;2023-09-08T13:51:41;19.70;69.60
49222;DHT22;35047;37.588;-122.048;2023-09-08T13:54:08;19.60;69.80
49222;DHT22;35047;37.588;-122.048;2023-09-08T13:56:37;19.60;70.20
49222;DHT22;35047;37.588;-122.048;2023-09-08T13:59:04;19.50;70.40
49222;DHT22;35047;37.588;-122.048;2023-09-08T14:01:32;19.50;71.10
49222;DHT22;35047;37.588;-122.048;2023-09-08T14:03:59;19.50;71.30
49222;DHT22;35047;37.588;-122.048;2023-09-08T14:06:28;19.40;72.00
49222;DHT22;35047;37.588;-122.048;2023-09-08T14:08:55;19.40;71.90
49222;DHT22;35047;37.588;-122.048;2023-09-08T14:11:22;19.40;72.10
49222;DHT22;35047;37.588;-122.048;2023-09-08T14:13:49;19.30;72.10
49222;DHT22;35047;37.588;-122.048;2023-09-08T14:16:17;19.30;72.80
49222;DHT22;35047;37.588;-122.048;2023-09-08T14:18:43;19.30;72.50
49222;DHT22;35047;37.588;-122.048;2023-09-08T14:21:09;19.30;72.70
49222;DHT22;35047;37.588;-122.048;2023-09-08T14:23:36;19.30;72.30
49222;DHT22;35047;37.588;-122.048;2023-09-08T14:26:07;19.30;72.60
49222;DHT22;35047;37.588;-122.048;2023-09-08T14:28:34;19.30;72.90
49222;DHT22;35047;37.588;-122.048;2023-09-08T14:31:00;19.40;92.60
49222;DHT22;35047;37.588;-122.048;2023-09-08T14:33:27;19.60;90.10
49222;DHT22;35047;37.588;-122.048;2023-09-08T14:35:53;19.30;74.10
49222;DHT22;35047;37.588;-122.048;2023-09-08T14:38:22;19.40;74.10
49222;DHT22;35047;37.588;-122.048;2023-09-08T14:41:01;19.40;74.30
49222;DHT22;35047;37.588;-122.048;2023-09-08T14:43:29;19.40;74.50
49222;DHT22;35047;37.588;-122.048;2023-09-08T14:45:55;19.50;74.50
49222;DHT22;35047;37.588;-122.048;2023-09-08T14:48:25;19.50;74.60
49222;DHT22;35047;37.588;-122.048;2023-09-08T14:50:51;19.60;74.90
49222;DHT22;35047;37.588;-122.048;2023-09-08T14:53:18;19.70;75.40
49222;DHT22;35047;37.588;-122.048;2023-09-08T14:55:44;19.80;75.20
49222;DHT22;35047;37.588;-122.048;2023-09-08T14:58:13;19.90;75.20
49222;DHT22;35047;37.588;-122.048;2023-09-08T15:00:40;20.00;75.50
49222;DHT22;35047;37.588;-122.048;2023-09-08T15:03:07;20.10;75.60
49222;DHT22;35047;37.588;-122.048;2023-09-08T15:05:34;20.10;79.70
49222;DHT22;35047;37.588;-122.048;2023-09-08T15:10:28;20.30;97.80
49222;DHT22;35047;37.588;-122.048;2023-09-08T15:15:21;20.40;97.90
49222;DHT22;35047;37.588;-122.048;2023-09-08T15:17:52;20.40;76.40
49222;DHT22;35047;37.588;-122.048;2023-09-08T15:22:47;20.70;98.50
49222;DHT22;35047;37.588;-122.048;2023-09-08T15:25:14;20.80;98.80
49222;DHT22;35047;37.588;-122.048;2023-09-08T16:04:32;22.30;98.80
49222;DHT22;35047;37.588;-122.048;2023-09-08T16:09:26;22.20;98.90
49222;DHT22;35047;37.588;-122.048;2023-09-08T16:29:01;23.00;98.10
49222;DHT22;35047;37.588;-122.048;2023-09-08T16:31:28;24.20;96.40
49222;DHT22;35047;37.588;-122.048;2023-09-08T16:33:55;25.50;93.50